createdAt,value
2019-04-20T13:21:52.734Z,13.55
2019-04-20T13:24:25.064Z,12.67
2019-04-20T13:26:56.774Z,13.88
2019-04-20T13:29:28.999Z,15.09
2019-04-20T13:32:00.343Z,14.14
2019-04-20T13:34:32.039Z,14.29
2019-04-20T13:37:04.276Z,13.12
2019-04-20T13:39:35.582Z,13.52
2019-04-20T13:42:13.997Z,13.10
2019-04-20T13:44:40.997Z,13.39
2019-04-20T13:47:12.874Z,13.39
2019-04-20T13:49:45.211Z,13.62
2019-04-20T13:52:17.013Z,14.19
2019-04-20T13:54:49.670Z,14.99
2019-04-20T13:57:21.998Z,14.91
2019-04-20T13:59:53.247Z,14.74
2019-04-20T14:02:24.870Z,14.34
2019-04-20T14:04:56.988Z,14.09
2019-04-20T14:07:29.267Z,14.06
2019-04-20T14:10:01.785Z,14.58
2019-04-20T14:12:38.560Z,15.39
2019-04-20T14:15:07.063Z,15.38
2019-04-20T14:17:39.257Z,15.79
2019-04-20T14:20:14.967Z,15.56
2019-04-20T14:22:45.202Z,14.90
2019-04-20T14:25:16.564Z,15.91
2019-04-20T14:27:48.703Z,15.35
2019-04-20T14:30:21.150Z,15.41
2019-04-20T14:32:54.706Z,16.08
2019-04-20T14:35:27.060Z,15.53
2019-04-20T14:37:59.672Z,15.68
2019-04-20T14:40:32.384Z,16.83
2019-04-20T14:43:05.104Z,15.55
2019-04-20T14:45:36.636Z,16.00
2019-04-20T14:48:07.991Z,16.53
2019-04-20T14:50:39.103Z,16.40
2019-04-20T14:53:11.557Z,16.52
2019-04-20T14:55:43.726Z,15.88
2019-04-20T14:58:15.352Z,15.88
2019-04-20T15:00:51.054Z,16.22
2019-04-20T15:03:19.964Z,18.08
2019-04-20T15:05:55.936Z,18.95
2019-04-20T15:08:27.509Z,20.56
2019-04-20T15:10:59.255Z,21.49
2019-04-20T15:13:30.791Z,21.31
2019-04-20T15:16:02.514Z,24.13
2019-04-20T15:18:33.886Z,25.46
2019-04-20T15:21:05.790Z,23.57
2019-04-20T15:23:37.388Z,24.04
2019-04-20T15:26:08.766Z,23.71
2019-04-20T15:28:39.882Z,23.29
2019-04-20T15:31:12.181Z,23.11
2019-04-20T15:33:43.455Z,23.92
2019-04-20T15:36:15.850Z,25.20
2019-04-20T15:38:47.512Z,25.35
2019-04-20T15:41:18.947Z,26.15
2019-04-20T15:43:51.206Z,24.18
2019-04-20T15:46:23.450Z,25.69
2019-04-20T15:48:55.796Z,25.22
2019-04-20T15:51:27.964Z,25.61
2019-04-20T15:53:59.965Z,27.36
2019-04-20T15:56:31.250Z,26.90
2019-04-20T15:59:02.576Z,27.58
2019-04-20T16:01:34.365Z,27.58
2019-04-20T16:04:05.682Z,29.07
2019-04-20T16:06:37.023Z,28.37
2019-04-20T16:09:08.398Z,28.37
2019-04-20T16:11:41.173Z,28.70
2019-04-20T16:14:13.599Z,27.87
2019-04-20T16:16:44.864Z,27.30
2019-04-20T16:19:27.641Z,27.99
2019-04-20T16:21:49.905Z,28.05
2019-04-20T16:24:22.347Z,28.05
2019-04-20T16:26:53.803Z,27.83
2019-04-20T16:29:25.861Z,27.94
2019-04-20T16:31:58.272Z,28.20
2019-04-20T16:34:29.692Z,30.59
2019-04-20T16:37:02.175Z,29.94
2019-04-20T16:39:34.366Z,30.13
2019-04-20T16:42:06.533Z,30.50
2019-04-20T16:44:38.890Z,29.41
2019-04-20T16:47:10.424Z,30.53
2019-04-20T16:49:41.512Z,30.53
2019-04-20T16:52:12.940Z,31.23
2019-04-20T16:54:44.299Z,31.23
2019-04-20T16:57:17.116Z,30.59
2019-04-20T16:59:52.471Z,31.56
2019-04-20T17:02:22.763Z,31.48
2019-04-20T17:04:55.414Z,31.48
2019-04-20T17:07:27.146Z,30.76
2019-04-20T17:09:58.264Z,32.08
2019-04-20T17:12:30.098Z,32.01
2019-04-20T17:15:01.741Z,32.44
2019-04-20T17:17:33.606Z,32.53
2019-04-20T17:20:07.300Z,32.53
2019-04-20T17:22:40.183Z,32.86
2019-04-20T17:25:14.218Z,32.86
2019-04-20T17:27:46.816Z,33.14
2019-04-20T17:30:23.178Z,33.14
2019-04-20T17:32:53.722Z,33.38
2019-04-20T17:35:37.056Z,33.11
2019-04-20T17:37:58.486Z,32.97
2019-04-20T17:40:52.913Z,33.48
2019-04-20T17:43:16.052Z,33.53
2019-04-20T17:45:49.746Z,33.81
2019-04-20T17:48:26.997Z,34.22
2019-04-20T17:51:04.654Z,34.22
2019-04-20T17:53:29.406Z,34.14
2019-04-20T17:55:51.776Z,34.62
2019-04-20T17:58:27.962Z,34.38
2019-04-20T18:00:58.248Z,34.85
2019-04-20T18:04:03.613Z,34.85
2019-04-20T18:06:19.951Z,35.24
2019-04-20T18:08:56.138Z,35.53
2019-04-20T18:11:15.204Z,35.81
2019-04-20T18:13:44.881Z,35.81
2019-04-20T18:16:35.512Z,35.35
2019-04-20T18:18:58.506Z,36.70
2019-04-20T18:21:21.624Z,36.70
2019-04-20T18:23:54.085Z,37.10
2019-04-20T18:26:45.416Z,37.57
2019-04-20T18:29:21.327Z,37.33
2019-04-20T18:31:33.533Z,38.32
2019-04-20T18:34:11.350Z,38.36
2019-04-20T18:36:42.589Z,37.81
2019-04-20T18:39:16.153Z,38.90
2019-04-20T18:41:51.472Z,38.39
2019-04-20T18:44:27.937Z,39.16
2019-04-20T18:47:10.882Z,39.16
2019-04-20T18:49:38.662Z,39.24
2019-04-20T18:51:59.808Z,39.95
2019-04-20T18:54:35.319Z,40.76
2019-04-20T18:57:11.416Z,40.22
2019-04-20T18:59:42.610Z,40.88
2019-04-20T19:02:18.552Z,41.32
2019-04-20T19:04:45.776Z,41.32
2019-04-20T19:07:17.549Z,40.21
2019-04-20T19:09:53.791Z,40.21
2019-04-20T19:12:28.510Z,41.61
2019-04-20T19:15:03.430Z,41.12
2019-04-20T19:17:41.662Z,41.58
2019-04-20T19:20:03.233Z,41.80
2019-04-20T19:22:36.722Z,41.29
2019-04-20T19:25:09.978Z,41.81
2019-04-20T19:27:48.416Z,42.54
2019-04-20T19:30:26.319Z,42.42
2019-04-20T19:33:06.018Z,41.88
2019-04-20T19:35:33.548Z,41.12
2019-04-20T19:38:06.594Z,42.14
2019-04-20T19:40:40.996Z,42.68
2019-04-20T19:43:14.783Z,42.69
2019-04-20T19:45:57.898Z,43.40
2019-04-20T19:48:22.123Z,43.53
2019-04-20T19:51:05.587Z,42.87
2019-04-20T19:53:30.884Z,44.56
2019-04-20T19:56:00.448Z,44.56
2019-04-20T19:58:30.269Z,44.12
2019-04-20T20:00:55.532Z,43.79
2019-04-20T20:03:27.783Z,45.04
2019-04-20T20:06:00.030Z,45.04
2019-04-20T20:08:35.795Z,46.01
2019-04-20T20:11:09.648Z,46.01
2019-04-20T20:13:46.089Z,46.49
2019-04-20T20:16:22.508Z,46.49
2019-04-20T20:18:58.920Z,46.38
2019-04-20T20:21:27.316Z,46.62
2019-04-20T20:23:52.229Z,46.92
2019-04-20T20:26:31.018Z,47.26
2019-04-20T20:29:08.212Z,46.89
2019-04-20T20:31:48.680Z,47.18
2019-04-20T20:34:14.305Z,47.18
2019-04-20T20:36:43.746Z,47.22
2019-04-20T20:39:19.677Z,47.36
2019-04-20T20:41:53.329Z,46.95
2019-04-20T20:44:27.635Z,47.86
2019-04-20T20:47:00.798Z,47.62
2019-04-20T20:49:38.590Z,47.10
2019-04-20T20:52:17.063Z,48.27
2019-04-20T20:54:41.358Z,48.27
2019-04-20T20:57:07.345Z,46.46
2019-04-20T20:59:42.726Z,47.70
2019-04-20T21:02:15.774Z,46.20
2019-04-20T21:04:42.015Z,46.21
2019-04-20T21:07:13.239Z,47.02
2019-04-20T21:09:44.566Z,47.64
2019-04-20T21:12:18.074Z,47.41
2019-04-20T21:14:49.166Z,47.41
2019-04-20T21:17:25.188Z,47.08
2019-04-20T21:20:14.453Z,48.27
2019-04-20T21:22:45.009Z,48.29
2019-04-20T21:25:00.953Z,48.19
2019-04-20T21:27:32.872Z,48.17
2019-04-20T21:30:05.657Z,47.41
2019-04-20T21:32:44.163Z,48.42
2019-04-20T21:35:14.234Z,48.76
2019-04-20T21:37:52.555Z,48.84
2019-04-20T21:40:26.778Z,49.18
2019-04-20T21:42:58.612Z,50.27
2019-04-20T21:45:30.450Z,50.27
2019-04-20T21:48:01.307Z,50.16
2019-04-20T21:50:53.488Z,49.31
2019-04-20T21:53:12.814Z,50.27
2019-04-20T21:55:37.375Z,51.34
2019-04-20T21:58:10.243Z,50.81
2019-04-20T22:00:46.045Z,51.47
2019-04-20T22:03:16.848Z,51.90
2019-04-20T22:05:50.556Z,51.90
2019-04-20T22:08:22.235Z,51.61
2019-04-20T22:10:53.581Z,51.71
2019-04-20T22:13:31.112Z,51.71
2019-04-20T22:16:03.607Z,52.05
2019-04-20T22:18:45.512Z,52.05
2019-04-20T22:21:16.705Z,51.96
2019-04-20T22:23:54.367Z,52.33
2019-04-20T22:26:24.438Z,52.79
2019-04-20T22:28:44.731Z,52.79
2019-04-20T22:31:16.046Z,53.72
2019-04-20T22:33:48.950Z,53.70
2019-04-20T22:36:24.005Z,53.70
2019-04-20T22:38:56.609Z,53.98
2019-04-20T22:41:27.877Z,54.66
2019-04-20T22:44:01.791Z,54.66
2019-04-20T22:46:35.589Z,54.67
2019-04-20T22:49:22.265Z,54.70
2019-04-20T22:51:50.820Z,55.86
2019-04-20T22:54:27.884Z,55.86
2019-04-20T22:56:58.630Z,55.67
2019-04-20T22:59:23.449Z,56.83
2019-04-20T23:01:58.236Z,56.83
2019-04-20T23:04:26.745Z,56.01
2019-04-20T23:06:59.145Z,56.01
2019-04-20T23:09:34.097Z,56.97
2019-04-20T23:12:09.652Z,56.97
2019-04-20T23:14:38.259Z,57.27
2019-04-20T23:17:10.372Z,57.27
2019-04-20T23:19:48.843Z,58.64
2019-04-20T23:22:16.034Z,58.64
2019-04-20T23:24:48.981Z,58.62
2019-04-20T23:27:26.268Z,58.57
2019-04-20T23:29:53.346Z,58.93
2019-04-20T23:32:28.001Z,58.93
2019-04-20T23:35:03.905Z,59.97
2019-04-20T23:37:34.726Z,61.10
2019-04-20T23:40:08.178Z,61.03
2019-04-20T23:42:40.836Z,61.03
2019-04-20T23:45:11.561Z,61.33
2019-04-20T23:47:47.847Z,61.99
2019-04-20T23:50:37.220Z,61.99
2019-04-20T23:53:10.395Z,63.01
2019-04-20T23:55:23.622Z,62.83
2019-04-20T23:58:00.679Z,62.83
